createdAt,value
2022-10-07T03:20:24.050Z,102343.34
2022-10-07T03:25:49.845Z,102338.25
2022-10-07T03:31:12.243Z,102339.59
2022-10-07T03:36:39.299Z,102339.31
2022-10-07T03:42:01.993Z,102334.66
2022-10-07T03:47:22.940Z,102333.59
2022-10-07T03:52:45.661Z,102317.38
2022-10-07T03:58:06.978Z,102309.13
2022-10-07T04:03:28.228Z,102307.03
2022-10-07T04:08:53.278Z,102298.94
2022-10-07T04:14:14.251Z,102289.63
2022-10-07T04:19:35.950Z,102285.72
2022-10-07T04:25:15.975Z,102295.00
2022-10-07T04:30:43.576Z,102285.25
2022-10-07T04:36:09.846Z,102286.75
2022-10-07T04:41:39.015Z,102283.31
2022-10-07T04:47:07.146Z,102278.63
2022-10-07T04:52:31.125Z,102276.97
2022-10-07T04:57:52.596Z,102274.72
2022-10-07T05:03:15.565Z,102272.75
2022-10-07T05:08:36.822Z,102267.81
2022-10-07T05:13:58.430Z,102260.00
2022-10-07T05:19:22.049Z,102259.72
2022-10-07T05:24:42.889Z,102260.44
2022-10-07T05:30:05.071Z,102247.44
2022-10-07T05:35:27.355Z,102245.63
2022-10-07T05:40:58.738Z,102242.34
2022-10-07T05:46:21.917Z,102231.13
2022-10-07T05:51:46.783Z,102226.16
2022-10-07T05:57:07.537Z,102226.31
2022-10-07T06:02:29.394Z,102227.84
2022-10-07T06:07:50.050Z,102223.19
2022-10-07T06:13:11.079Z,102235.03
2022-10-07T06:18:38.825Z,102235.50
2022-10-07T06:23:59.866Z,102223.47
2022-10-07T06:29:26.342Z,102226.75
2022-10-07T06:34:47.162Z,102224.63
2022-10-07T06:40:08.978Z,102227.88
2022-10-07T06:45:33.984Z,102232.22
2022-10-07T06:50:58.709Z,102238.13
2022-10-07T06:56:21.546Z,102228.44
2022-10-07T07:01:42.430Z,102226.84
2022-10-07T07:07:03.326Z,102221.03
2022-10-07T07:12:25.322Z,102216.09
2022-10-07T07:17:48.735Z,102218.84
2022-10-07T07:23:12.476Z,102218.09
2022-10-07T07:28:34.438Z,102210.81
2022-10-07T07:34:01.615Z,102218.72
2022-10-07T07:39:23.460Z,102217.16
2022-10-07T07:44:51.332Z,102208.41
2022-10-07T07:50:14.107Z,102215.50
2022-10-07T07:55:34.967Z,102203.22
2022-10-07T08:01:10.657Z,102214.59
2022-10-07T08:06:32.607Z,102203.66
2022-10-07T08:11:57.331Z,102186.75
2022-10-07T08:17:18.521Z,102187.59
2022-10-07T08:22:39.926Z,102186.50
2022-10-07T08:28:01.308Z,102184.72
2022-10-07T08:33:22.854Z,102177.66
2022-10-07T08:38:48.256Z,102169.28
2022-10-07T08:44:18.001Z,102167.63
2022-10-07T08:49:54.464Z,102182.09
2022-10-07T08:55:22.213Z,102189.56
2022-10-07T09:00:50.474Z,102185.34
2022-10-07T09:06:16.655Z,102181.31
2022-10-07T09:11:41.964Z,102169.75
2022-10-07T09:17:17.500Z,102154.16
2022-10-07T09:22:39.809Z,102153.75
2022-10-07T09:28:00.743Z,102151.13
2022-10-07T09:33:23.846Z,102138.03
2022-10-07T09:38:47.549Z,102121.03
2022-10-07T09:44:25.983Z,102093.09
2022-10-07T09:49:51.793Z,102085.47
2022-10-07T09:55:31.889Z,102073.75
2022-10-07T10:00:55.445Z,102050.28
2022-10-07T10:06:21.957Z,102045.78
2022-10-07T10:11:42.834Z,102039.16
2022-10-07T10:17:04.373Z,102027.56
2022-10-07T10:22:30.458Z,102027.56
2022-10-07T10:28:03.357Z,102014.91
2022-10-07T10:33:47.102Z,102014.50
2022-10-07T10:39:48.718Z,101994.28
2022-10-07T10:45:15.470Z,101978.41
2022-10-07T10:50:49.043Z,101977.34
2022-10-07T10:56:28.546Z,101971.03
2022-10-07T11:02:29.555Z,101961.94
2022-10-07T11:07:59.111Z,101944.00
2022-10-07T11:13:30.570Z,101934.69
2022-10-07T11:19:39.075Z,101907.78
2022-10-07T11:25:08.573Z,101902.88
2022-10-07T11:30:41.998Z,101871.94
2022-10-07T11:36:17.672Z,101868.63
2022-10-07T11:42:26.993Z,101866.72
2022-10-07T11:47:56.660Z,101861.34
2022-10-07T11:53:23.063Z,101846.16
2022-10-07T11:58:45.155Z,101832.19
2022-10-07T12:04:20.926Z,101827.78
2022-10-07T12:10:00.473Z,101814.03
2022-10-07T12:15:42.412Z,101803.59
2022-10-07T12:21:08.188Z,101788.41
2022-10-07T12:26:30.420Z,101784.13
2022-10-07T12:31:51.409Z,101767.78
2022-10-07T12:37:40.099Z,101757.38
2022-10-07T12:43:11.447Z,101754.78
2022-10-07T12:48:42.292Z,101749.63
2022-10-07T12:54:20.180Z,101738.69
2022-10-07T12:59:56.930Z,101740.56
2022-10-07T13:05:55.463Z,101729.66
2022-10-07T13:11:55.341Z,101725.97
2022-10-07T13:17:35.379Z,101722.50
2022-10-07T13:22:56.595Z,101702.38
2022-10-07T13:28:22.471Z,101702.34
2022-10-07T13:33:44.547Z,101694.56
2022-10-07T13:39:11.483Z,101687.03
2022-10-07T13:44:32.652Z,101688.34
2022-10-07T13:49:54.348Z,101680.50
2022-10-07T13:55:30.333Z,101665.34
2022-10-07T14:00:52.524Z,101658.38
2022-10-07T14:06:44.958Z,101652.19
2022-10-07T14:12:31.390Z,101647.53
2022-10-07T14:18:08.051Z,101641.59
2022-10-07T14:23:32.890Z,101629.66
2022-10-07T14:28:54.011Z,101618.06
2022-10-07T14:34:38.707Z,101618.09
2022-10-07T14:39:59.625Z,101606.19
2022-10-07T14:45:22.417Z,101590.63
2022-10-07T14:50:43.233Z,101583.13
2022-10-07T14:56:04.905Z,101581.25
2022-10-07T15:01:29.705Z,101575.09
2022-10-07T15:06:51.166Z,101570.34
2022-10-07T15:12:14.008Z,101555.25
2022-10-07T15:17:35.098Z,101555.53
2022-10-07T15:22:56.907Z,101546.88
2022-10-07T15:28:18.331Z,101543.97
2022-10-07T15:33:41.136Z,101538.78
2022-10-07T15:39:02.868Z,101556.94
2022-10-07T15:44:23.663Z,101544.03
2022-10-07T15:49:44.509Z,101536.25
2022-10-07T15:55:08.175Z,101533.63
2022-10-07T16:00:29.076Z,101539.53
2022-10-07T16:05:58.195Z,101535.78
2022-10-07T16:11:20.145Z,101532.25
2022-10-07T16:16:41.331Z,101526.00
2022-10-07T16:22:02.414Z,101521.69
2022-10-07T16:27:43.364Z,101529.97
2022-10-07T16:33:04.559Z,101523.59
2022-10-07T16:38:25.488Z,101520.97
2022-10-07T16:43:46.790Z,101512.41
2022-10-07T16:49:11.278Z,101520.44
2022-10-07T16:54:35.216Z,101516.59
2022-10-07T16:59:57.633Z,101510.97
2022-10-07T17:05:18.895Z,101520.31
2022-10-07T17:10:41.143Z,101519.19
2022-10-07T17:16:02.091Z,101527.16
2022-10-07T17:21:23.394Z,101524.81
2022-10-07T17:26:45.036Z,101518.41
2022-10-07T17:32:07.104Z,101516.56
2022-10-07T17:37:27.878Z,101510.53
2022-10-07T17:42:48.646Z,101504.63
2022-10-07T17:48:10.056Z,101507.56
2022-10-07T17:53:32.491Z,101499.06
2022-10-07T17:58:53.636Z,101499.56
2022-10-07T18:04:22.516Z,101489.91
2022-10-07T18:09:45.549Z,101491.75
2022-10-07T18:15:22.289Z,101485.56
2022-10-07T18:20:43.165Z,101487.41
2022-10-07T18:26:15.942Z,101475.97
2022-10-07T18:31:36.937Z,101466.28
2022-10-07T18:36:57.651Z,101454.72
2022-10-07T18:42:18.829Z,101454.88
2022-10-07T18:47:39.730Z,101445.19
2022-10-07T18:53:00.765Z,101437.13
2022-10-07T18:58:21.484Z,101425.44
2022-10-07T19:03:42.936Z,101429.72
2022-10-07T19:09:11.396Z,101427.38
2022-10-07T19:14:34.424Z,101423.84
2022-10-07T19:19:57.731Z,101423.66
2022-10-07T19:25:37.063Z,101414.28
2022-10-07T19:30:59.081Z,101415.38
2022-10-07T19:36:21.238Z,101404.69
2022-10-07T19:41:44.035Z,101403.44
2022-10-07T19:47:04.864Z,101404.69
2022-10-07T19:52:27.386Z,101396.56
2022-10-07T19:57:48.395Z,101398.69
2022-10-07T20:03:10.024Z,101392.75
2022-10-07T20:08:57.538Z,101395.19
2022-10-07T20:14:19.639Z,101394.19
2022-10-07T20:19:40.627Z,101391.63
2022-10-07T20:25:02.406Z,101377.50
2022-10-07T20:30:22.986Z,101385.84
2022-10-07T20:35:43.809Z,101377.59
2022-10-07T20:41:23.229Z,101376.25
2022-10-07T20:46:44.414Z,101376.91
2022-10-07T20:52:08.007Z,101369.44
2022-10-07T20:57:33.933Z,101356.41
2022-10-07T21:02:54.992Z,101351.63
2022-10-07T21:08:16.073Z,101350.25
2022-10-07T21:13:37.425Z,101347.59
2022-10-07T21:18:58.161Z,101346.22
2022-10-07T21:24:19.344Z,101332.34
2022-10-07T21:29:41.392Z,101330.66
2022-10-07T21:35:03.249Z,101332.09
2022-10-07T21:40:24.797Z,101329.63
2022-10-07T21:45:45.986Z,101328.16
2022-10-07T21:51:09.655Z,101314.13
2022-10-07T21:56:33.220Z,101315.66
